sensor_id;sensor_type;location;lat;lon;timestamp;pressure;altitude;pressure_sealevel;temperature;humidity
33155;BME280;19511;42.682;23.332;2023-04-28T00:01:20;95365.59;;;6.94;91.21
33155;BME280;19511;42.682;23.332;2023-04-28T00:03:46;95373.06;;;6.94;91.16
33155;BME280;19511;42.682;23.332;2023-04-28T00:06:14;95368.72;;;6.93;90.98
33155;BME280;19511;42.682;23.332;2023-04-28T00:08:41;95358.78;;;6.77;90.62
33155;BME280;19511;42.682;23.332;2023-04-28T00:11:09;95378.41;;;6.76;92.67
33155;BME280;19511;42.682;23.332;2023-04-28T00:13:39;95352.34;;;6.59;93.22
33155;BME280;19511;42.682;23.332;2023-04-28T00:16:05;95387.78;;;6.71;93.42
33155;BME280;19511;42.682;23.332;2023-04-28T00:18:31;95371.31;;;6.71;93.21
33155;BME280;19511;42.682;23.332;2023-04-28T00:20:57;95377.50;;;6.61;94.14
33155;BME280;19511;42.682;23.332;2023-04-28T00:23:26;95367.19;;;6.50;94.81
33155;BME280;19511;42.682;23.332;2023-04-28T00:25:52;95359.34;;;6.52;93.50
33155;BME280;19511;42.682;23.332;2023-04-28T00:28:21;95381.78;;;6.58;93.65
33155;BME280;19511;42.682;23.332;2023-04-28T00:30:47;95265.19;;;5.73;95.74
33155;BME280;19511;42.682;23.332;2023-04-28T00:33:13;95370.69;;;6.44;95.62
33155;BME280;19511;42.682;23.332;2023-04-28T00:35:39;95371.88;;;6.46;94.70
33155;BME280;19511;42.682;23.332;2023-04-28T00:38:08;95373.09;;;6.52;94.05
33155;BME280;19511;42.682;23.332;2023-04-28T00:40:41;95381.25;;;6.42;95.59
33155;BME280;19511;42.682;23.332;2023-04-28T00:43:07;95274.03;;;5.59;95.43
33155;BME280;19511;42.682;23.332;2023-04-28T00:45:36;95372.41;;;6.21;96.21
33155;BME280;19511;42.682;23.332;2023-04-28T00:48:06;95361.38;;;6.18;96.24
33155;BME280;19511;42.682;23.332;2023-04-28T00:50:32;95385.84;;;6.30;96.73
33155;BME280;19511;42.682;23.332;2023-04-28T00:53:01;95386.22;;;6.29;96.56
33155;BME280;19511;42.682;23.332;2023-04-28T00:55:30;95379.88;;;6.25;96.08
33155;BME280;19511;42.682;23.332;2023-04-28T00:58:05;95359.69;;;6.06;96.16
33155;BME280;19511;42.682;23.332;2023-04-28T01:00:31;95389.31;;;6.24;96.80
33155;BME280;19511;42.682;23.332;2023-04-28T01:03:00;95390.84;;;6.21;96.34
33155;BME280;19511;42.682;23.332;2023-04-28T01:05:26;95367.41;;;5.97;97.91
33155;BME280;19511;42.682;23.332;2023-04-28T01:07:52;95377.69;;;6.03;98.50
33155;BME280;19511;42.682;23.332;2023-04-28T01:10:18;95271.00;;;5.34;98.38
33155;BME280;19511;42.682;23.332;2023-04-28T01:12:44;95391.38;;;6.00;99.68
33155;BME280;19511;42.682;23.332;2023-04-28T01:15:15;95327.00;;;5.63;98.42
33155;BME280;19511;42.682;23.332;2023-04-28T01:17:40;95381.22;;;6.04;98.60
33155;BME280;19511;42.682;23.332;2023-04-28T01:20:06;95400.13;;;6.09;98.33
33155;BME280;19511;42.682;23.332;2023-04-28T01:22:32;95385.72;;;5.85;98.39
33155;BME280;19511;42.682;23.332;2023-04-28T01:25:03;95407.78;;;5.96;98.86
33155;BME280;19511;42.682;23.332;2023-04-28T01:27:28;95310.09;;;5.27;98.68
33155;BME280;19511;42.682;23.332;2023-04-28T01:29:58;95406.19;;;5.95;97.89
33155;BME280;19511;42.682;23.332;2023-04-28T01:32:23;95397.91;;;5.88;98.37
33155;BME280;19511;42.682;23.332;2023-04-28T01:34:51;95393.84;;;5.78;99.06
33155;BME280;19511;42.682;23.332;2023-04-28T01:37:16;95389.34;;;5.63;100.00
33155;BME280;19511;42.682;23.332;2023-04-28T01:39:42;95382.69;;;5.64;99.92
33155;BME280;19511;42.682;23.332;2023-04-28T01:42:07;95306.06;;;5.17;99.36
33155;BME280;19511;42.682;23.332;2023-04-28T01:44:33;95391.38;;;5.69;99.43
33155;BME280;19511;42.682;23.332;2023-04-28T01:46:59;95377.97;;;5.34;100.00
33155;BME280;19511;42.682;23.332;2023-04-28T01:49:24;95390.72;;;5.49;100.00
33155;BME280;19511;42.682;23.332;2023-04-28T01:51:50;95388.88;;;5.57;100.00
33155;BME280;19511;42.682;23.332;2023-04-28T01:54:15;95402.59;;;5.57;100.00
33155;BME280;19511;42.682;23.332;2023-04-28T01:56:41;95383.88;;;5.36;100.00
33155;BME280;19511;42.682;23.332;2023-04-28T01:59:06;95387.16;;;5.45;100.00
33155;BME280;19511;42.682;23.332;2023-04-28T02:01:32;95390.59;;;5.42;100.00
33155;BME280;19511;42.682;23.332;2023-04-28T02:03:57;95413.94;;;5.55;100.00
33155;BME280;19511;42.682;23.332;2023-04-28T02:06:23;95404.81;;;5.48;100.00
33155;BME280;19511;42.682;23.332;2023-04-28T02:08:48;95378.91;;;5.45;99.87
33155;BME280;19511;42.682;23.332;2023-04-28T02:11:13;95381.94;;;5.36;100.00
33155;BME280;19511;42.682;23.332;2023-04-28T02:13:39;95394.09;;;5.39;100.00
33155;BME280;19511;42.682;23.332;2023-04-28T02:16:05;95406.34;;;5.45;100.00
33155;BME280;19511;42.682;23.332;2023-04-28T02:18:30;95421.72;;;5.53;99.78
33155;BME280;19511;42.682;23.332;2023-04-28T02:20:56;95398.31;;;5.33;100.00
33155;BME280;19511;42.682;23.332;2023-04-28T02:23:21;95412.16;;;5.40;100.00
33155;BME280;19511;42.682;23.332;2023-04-28T02:25:47;95411.72;;;5.38;100.00
33155;BME280;19511;42.682;23.332;2023-04-28T02:28:16;95422.06;;;5.48;100.00
33155;BME280;19511;42.682;23.332;2023-04-28T02:30:41;95380.88;;;5.18;100.00
33155;BME280;19511;42.682;23.332;2023-04-28T02:33:07;95384.50;;;5.26;100.00
33155;BME280;19511;42.682;23.332;2023-04-28T02:35:32;95410.44;;;5.32;100.00
33155;BME280;19511;42.682;23.332;2023-04-28T02:37:58;95420.78;;;5.42;100.00
33155;BME280;19511;42.682;23.332;2023-04-28T02:40:27;95397.06;;;5.27;100.00
33155;BME280;19511;42.682;23.332;2023-04-28T02:42:52;95414.78;;;5.33;100.00
33155;BME280;19511;42.682;23.332;2023-04-28T02:45:18;95434.09;;;5.40;100.00
33155;BME280;19511;42.682;23.332;2023-04-28T02:47:43;95432.47;;;5.35;100.00
33155;BME280;19511;42.682;23.332;2023-04-28T02:50:09;95394.84;;;5.09;100.00
33155;BME280;19511;42.682;23.332;2023-04-28T02:52:35;95426.50;;;5.30;100.00
33155;BME280;19511;42.682;23.332;2023-04-28T02:55:00;95428.63;;;5.40;100.00
33155;BME280;19511;42.682;23.332;2023-04-28T02:57:27;95418.03;;;5.15;100.00
33155;BME280;19511;42.682;23.332;2023-04-28T02:59:53;95354.72;;;4.70;100.00
33155;BME280;19511;42.682;23.332;2023-04-28T03:02:18;95428.81;;;5.01;100.00
33155;BME280;19511;42.682;23.332;2023-04-28T03:04:44;95437.25;;;5.15;100.00
33155;BME280;19511;42.682;23.332;2023-04-28T03:07:10;95424.59;;;5.07;100.00
33155;BME280;19511;42.682;23.332;2023-04-28T03:09:35;95437.25;;;5.15;100.00
33155;BME280;19511;42.682;23.332;2023-04-28T03:12:01;95436.22;;;5.23;100.00
33155;BME280;19511;42.682;23.332;2023-04-28T03:14:27;95449.59;;;5.29;100.00
33155;BME280;19511;42.682;23.332;2023-04-28T03:16:55;95448.84;;;5.32;100.00
33155;BME280;19511;42.682;23.332;2023-04-28T03:19:22;95439.91;;;5.35;100.00
33155;BME280;19511;42.682;23.332;2023-04-28T03:21:47;95430.84;;;5.31;100.00
33155;BME280;19511;42.682;23.332;2023-04-28T03:24:12;95444.25;;;5.39;100.00
33155;BME280;19511;42.682;23.332;2023-04-28T03:26:38;95356.34;;;4.75;100.00
33155;BME280;19511;42.682;23.332;2023-04-28T03:29:03;95452.94;;;5.42;100.00
33155;BME280;19511;42.682;23.332;2023-04-28T03:31:29;95470.72;;;5.51;100.00
33155;BME280;19511;42.682;23.332;2023-04-28T03:33:54;95458.34;;;5.38;100.00
33155;BME280;19511;42.682;23.332;2023-04-28T03:36:20;95477.34;;;5.50;99.47
33155;BME280;19511;42.682;23.332;2023-04-28T03:38:45;95376.81;;;4.81;98.95
33155;BME280;19511;42.682;23.332;2023-04-28T03:41:15;95463.78;;;5.34;99.09
33155;BME280;19511;42.682;23.332;2023-04-28T03:43:41;95463.75;;;5.31;98.63
33155;BME280;19511;42.682;23.332;2023-04-28T03:46:07;95375.59;;;4.79;98.31
33155;BME280;19511;42.682;23.332;2023-04-28T03:48:32;95500.47;;;5.49;98.64
33155;BME280;19511;42.682;23.332;2023-04-28T03:50:57;95364.88;;;4.70;98.22
33155;BME280;19511;42.682;23.332;2023-04-28T03:53:23;95502.16;;;5.58;97.75
33155;BME280;19511;42.682;23.332;2023-04-28T03:55:48;95500.16;;;5.54;98.10
33155;BME280;19511;42.682;23.332;2023-04-28T03:58:14;95481.78;;;5.32;99.29
33155;BME280;19511;42.682;23.332;2023-04-28T04:00:39;95406.53;;;4.79;100.00
33155;BME280;19511;42.682;23.332;2023-04-28T04:03:05;95513.47;;;5.52;99.21
33155;BME280;19511;42.682;23.332;2023-04-28T04:05:34;95509.28;;;5.62;97.54
33155;BME280;19511;42.682;23.332;2023-04-28T04:08:04;95522.34;;;5.69;97.38
33155;BME280;19511;42.682;23.332;2023-04-28T04:10:30;95511.34;;;5.69;97.61
33155;BME280;19511;42.682;23.332;2023-04-28T04:12:55;95511.56;;;5.83;96.06
33155;BME280;19511;42.682;23.332;2023-04-28T04:15:20;95505.16;;;5.76;95.63
33155;BME280;19511;42.682;23.332;2023-04-28T04:17:46;95515.88;;;5.84;96.22
33155;BME280;19511;42.682;23.332;2023-04-28T04:20:12;95440.44;;;5.44;95.24
33155;BME280;19511;42.682;23.332;2023-04-28T04:22:37;95513.84;;;5.78;93.86
33155;BME280;19511;42.682;23.332;2023-04-28T04:25:03;95530.88;;;5.91;93.76
33155;BME280;19511;42.682;23.332;2023-04-28T04:27:32;95533.63;;;5.91;94.35
33155;BME280;19511;42.682;23.332;2023-04-28T04:30:00;95541.50;;;5.92;92.77
33155;BME280;19511;42.682;23.332;2023-04-28T04:32:25;95486.44;;;5.54;92.85
33155;BME280;19511;42.682;23.332;2023-04-28T04:34:51;95537.94;;;5.92;93.08
33155;BME280;19511;42.682;23.332;2023-04-28T04:37:16;95438.69;;;5.32;92.41
33155;BME280;19511;42.682;23.332;2023-04-28T04:39:43;95540.75;;;5.95;92.57
33155;BME280;19511;42.682;23.332;2023-04-28T04:42:09;95539.13;;;5.91;92.15
33155;BME280;19511;42.682;23.332;2023-04-28T04:44:34;95546.53;;;5.90;93.02
33155;BME280;19511;42.682;23.332;2023-04-28T04:46:59;95542.28;;;5.93;91.75
33155;BME280;19511;42.682;23.332;2023-04-28T04:49:25;95518.94;;;5.79;92.85
33155;BME280;19511;42.682;23.332;2023-04-28T04:51:50;95550.31;;;6.05;92.18
33155;BME280;19511;42.682;23.332;2023-04-28T04:54:16;95556.72;;;6.13;92.30
33155;BME280;19511;42.682;23.332;2023-04-28T04:56:49;95553.56;;;6.11;92.61
33155;BME280;19511;42.682;23.332;2023-04-28T04:59:20;95544.06;;;6.04;91.00
33155;BME280;19511;42.682;23.332;2023-04-28T05:01:46;95562.69;;;6.18;91.31
33155;BME280;19511;42.682;23.332;2023-04-28T05:04:12;95477.88;;;5.60;91.53
33155;BME280;19511;42.682;23.332;2023-04-28T05:06:37;95562.41;;;6.27;91.59
33155;BME280;19511;42.682;23.332;2023-04-28T05:09:04;95561.50;;;6.19;91.42
33155;BME280;19511;42.682;23.332;2023-04-28T05:11:29;95549.88;;;6.30;90.03
33155;BME280;19511;42.682;23.332;2023-04-28T05:13:55;95565.72;;;6.40;89.55
33155;BME280;19511;42.682;23.332;2023-04-28T05:16:20;95472.22;;;5.76;88.89
33155;BME280;19511;42.682;23.332;2023-04-28T05:18:46;95571.63;;;6.42;89.06
33155;BME280;19511;42.682;23.332;2023-04-28T05:21:11;95573.53;;;6.38;88.88
33155;BME280;19511;42.682;23.332;2023-04-28T05:23:37;95567.19;;;6.34;89.85
33155;BME280;19511;42.682;23.332;2023-04-28T05:26:03;95576.72;;;6.40;90.32
33155;BME280;19511;42.682;23.332;2023-04-28T05:28:29;95563.28;;;6.35;89.80
33155;BME280;19511;42.682;23.332;2023-04-28T05:30:55;95572.03;;;6.44;90.43
33155;BME280;19511;42.682;23.332;2023-04-28T05:33:21;95565.56;;;6.60;91.33
33155;BME280;19511;42.682;23.332;2023-04-28T05:35:48;95562.97;;;6.74;90.63
33155;BME280;19511;42.682;23.332;2023-04-28T05:38:13;95548.56;;;6.84;88.81
33155;BME280;19511;42.682;23.332;2023-04-28T05:40:40;95557.38;;;7.01;88.83
33155;BME280;19511;42.682;23.332;2023-04-28T05:43:05;95559.06;;;7.13;87.71
33155;BME280;19511;42.682;23.332;2023-04-28T05:45:31;95560.00;;;7.28;87.32
33155;BME280;19511;42.682;23.332;2023-04-28T05:47:57;95552.53;;;7.28;86.96
33155;BME280;19511;42.682;23.332;2023-04-28T05:50:22;95565.63;;;7.42;84.68
33155;BME280;19511;42.682;23.332;2023-04-28T05:52:48;95562.81;;;7.35;84.71
33155;BME280;19511;42.682;23.332;2023-04-28T05:55:16;95555.75;;;7.34;83.71
33155;BME280;19511;42.682;23.332;2023-04-28T05:57:44;95523.69;;;7.11;83.22
33155;BME280;19511;42.682;23.332;2023-04-28T06:00:10;95550.25;;;7.34;82.69
33155;BME280;19511;42.682;23.332;2023-04-28T06:02:35;95568.91;;;7.14;82.11
33155;BME280;19511;42.682;23.332;2023-04-28T06:05:04;95561.00;;;7.09;84.51
33155;BME280;19511;42.682;23.332;2023-04-28T06:07:30;95575.34;;;7.29;84.40
33155;BME280;19511;42.682;23.332;2023-04-28T06:09:55;95558.41;;;7.27;84.72
33155;BME280;19511;42.682;23.332;2023-04-28T06:12:22;95527.19;;;7.08;85.12
33155;BME280;19511;42.682;23.332;2023-04-28T06:14:54;95551.38;;;7.29;86.60
33155;BME280;19511;42.682;23.332;2023-04-28T06:17:20;95557.88;;;7.55;84.34
33155;BME280;19511;42.682;23.332;2023-04-28T06:19:48;95558.75;;;7.66;81.84
33155;BME280;19511;42.682;23.332;2023-04-28T06:22:17;95571.78;;;7.73;83.37
33155;BME280;19511;42.682;23.332;2023-04-28T06:24:43;95571.88;;;7.84;81.20
33155;BME280;19511;42.682;23.332;2023-04-28T06:27:08;95567.63;;;7.94;80.65
33155;BME280;19511;42.682;23.332;2023-04-28T06:29:34;95571.63;;;8.04;79.83
33155;BME280;19511;42.682;23.332;2023-04-28T06:31:59;95575.97;;;8.05;79.03
33155;BME280;19511;42.682;23.332;2023-04-28T06:34:25;95553.09;;;7.97;79.98
33155;BME280;19511;42.682;23.332;2023-04-28T06:36:56;95570.53;;;8.15;78.39
33155;BME280;19511;42.682;23.332;2023-04-28T06:39:22;95555.13;;;8.11;76.92
33155;BME280;19511;42.682;23.332;2023-04-28T06:41:47;95486.53;;;7.88;76.76
33155;BME280;19511;42.682;23.332;2023-04-28T06:44:13;95564.00;;;8.45;75.19
33155;BME280;19511;42.682;23.332;2023-04-28T06:46:38;95562.09;;;8.49;74.39
33155;BME280;19511;42.682;23.332;2023-04-28T06:49:04;95464.88;;;7.82;75.69
33155;BME280;19511;42.682;23.332;2023-04-28T06:51:32;95462.56;;;7.95;77.22
33155;BME280;19511;42.682;23.332;2023-04-28T06:53:58;95564.00;;;8.42;72.75
33155;BME280;19511;42.682;23.332;2023-04-28T06:56:24;95557.25;;;8.39;74.75
33155;BME280;19511;42.682;23.332;2023-04-28T06:58:49;95548.28;;;8.46;75.07
33155;BME280;19511;42.682;23.332;2023-04-28T07:01:16;95538.06;;;8.54;73.62
33155;BME280;19511;42.682;23.332;2023-04-28T07:03:41;95537.63;;;8.48;72.50
33155;BME280;19511;42.682;23.332;2023-04-28T07:06:07;95558.22;;;8.69;72.86
33155;BME280;19511;42.682;23.332;2023-04-28T07:08:33;95563.75;;;8.76;76.25
33155;BME280;19511;42.682;23.332;2023-04-28T07:10:59;95534.63;;;8.75;71.93
33155;BME280;19511;42.682;23.332;2023-04-28T07:13:31;95547.59;;;8.74;71.24
33155;BME280;19511;42.682;23.332;2023-04-28T07:15:57;95546.84;;;8.85;68.05
33155;BME280;19511;42.682;23.332;2023-04-28T07:18:23;95558.25;;;8.76;67.15
33155;BME280;19511;42.682;23.332;2023-04-28T07:20:49;95539.38;;;8.89;67.96
33155;BME280;19511;42.682;23.332;2023-04-28T07:23:14;95526.38;;;9.00;67.82
33155;BME280;19511;42.682;23.332;2023-04-28T07:25:40;95538.28;;;9.22;66.60
33155;BME280;19511;42.682;23.332;2023-04-28T07:28:06;95545.41;;;9.41;67.69
33155;BME280;19511;42.682;23.332;2023-04-28T07:30:32;95540.66;;;9.31;64.76
33155;BME280;19511;42.682;23.332;2023-04-28T07:32:58;95537.13;;;9.41;65.47
33155;BME280;19511;42.682;23.332;2023-04-28T07:35:24;95546.56;;;9.33;64.67
33155;BME280;19511;42.682;23.332;2023-04-28T07:37:50;95533.94;;;9.28;64.55
33155;BME280;19511;42.682;23.332;2023-04-28T07:40:16;95534.34;;;9.41;64.50
33155;BME280;19511;42.682;23.332;2023-04-28T07:42:42;95475.56;;;9.08;64.79
33155;BME280;19511;42.682;23.332;2023-04-28T07:45:08;95546.22;;;9.82;64.23
33155;BME280;19511;42.682;23.332;2023-04-28T07:47:34;95550.13;;;9.95;64.38
33155;BME280;19511;42.682;23.332;2023-04-28T07:50:00;95549.72;;;10.07;63.51
33155;BME280;19511;42.682;23.332;2023-04-28T07:52:29;95541.81;;;10.17;62.51
33155;BME280;19511;42.682;23.332;2023-04-28T07:54:55;95472.41;;;9.60;60.56
33155;BME280;19511;42.682;23.332;2023-04-28T07:57:21;95541.81;;;10.13;62.05
33155;BME280;19511;42.682;23.332;2023-04-28T07:59:46;95535.50;;;10.23;61.16
33155;BME280;19511;42.682;23.332;2023-04-28T08:02:12;95546.09;;;10.32;61.14
33155;BME280;19511;42.682;23.332;2023-04-28T08:04:39;95458.94;;;9.95;60.45
33155;BME280;19511;42.682;23.332;2023-04-28T08:07:05;95541.28;;;10.65;62.09
33155;BME280;19511;42.682;23.332;2023-04-28T08:09:31;95525.84;;;10.71;59.22
33155;BME280;19511;42.682;23.332;2023-04-28T08:11:59;95542.41;;;10.89;58.80
33155;BME280;19511;42.682;23.332;2023-04-28T08:14:28;95530.09;;;10.98;59.08
33155;BME280;19511;42.682;23.332;2023-04-28T08:16:53;95518.47;;;11.21;58.11
33155;BME280;19511;42.682;23.332;2023-04-28T08:19:19;95524.81;;;11.25;58.13
33155;BME280;19511;42.682;23.332;2023-04-28T08:21:47;95533.47;;;11.27;57.41
33155;BME280;19511;42.682;23.332;2023-04-28T08:24:13;95526.53;;;10.97;57.60
33155;BME280;19511;42.682;23.332;2023-04-28T08:26:38;95506.22;;;10.29;57.98
33155;BME280;19511;42.682;23.332;2023-04-28T08:29:04;95509.25;;;10.71;58.54
33155;BME280;19511;42.682;23.332;2023-04-28T08:31:29;95533.09;;;10.40;57.41
33155;BME280;19511;42.682;23.332;2023-04-28T08:33:55;95525.91;;;10.64;57.68
33155;BME280;19511;42.682;23.332;2023-04-28T08:36:20;95455.28;;;10.27;56.47
33155;BME280;19511;42.682;23.332;2023-04-28T08:38:50;95521.81;;;10.94;57.16
33155;BME280;19511;42.682;23.332;2023-04-28T08:41:15;95526.22;;;10.81;56.47
33155;BME280;19511;42.682;23.332;2023-04-28T08:43:41;95380.78;;;9.94;56.18
33155;BME280;19511;42.682;23.332;2023-04-28T08:46:08;95528.03;;;11.13;56.41
33155;BME280;19511;42.682;23.332;2023-04-28T08:48:41;95410.63;;;10.32;55.68
33155;BME280;19511;42.682;23.332;2023-04-28T08:51:17;95449.56;;;10.70;55.48
33155;BME280;19511;42.682;23.332;2023-04-28T08:53:52;95518.00;;;11.33;55.41
33155;BME280;19511;42.682;23.332;2023-04-28T08:56:20;95431.13;;;10.53;55.04
33155;BME280;19511;42.682;23.332;2023-04-28T08:58:49;95505.09;;;11.12;57.83
33155;BME280;19511;42.682;23.332;2023-04-28T09:01:15;95501.63;;;11.57;55.66
33155;BME280;19511;42.682;23.332;2023-04-28T09:03:41;95479.72;;;11.21;54.34
33155;BME280;19511;42.682;23.332;2023-04-28T09:06:07;95504.13;;;11.37;54.84
33155;BME280;19511;42.682;23.332;2023-04-28T09:08:32;95501.84;;;11.24;54.91
33155;BME280;19511;42.682;23.332;2023-04-28T09:11:24;95486.81;;;11.25;54.58
33155;BME280;19511;42.682;23.332;2023-04-28T09:13:50;95499.59;;;11.61;54.58
33155;BME280;19511;42.682;23.332;2023-04-28T09:16:15;95328.19;;;10.80;56.34
33155;BME280;19511;42.682;23.332;2023-04-28T09:18:54;95489.28;;;12.11;53.01
33155;BME280;19511;42.682;23.332;2023-04-28T09:21:24;95496.84;;;12.06;52.13
33155;BME280;19511;42.682;23.332;2023-04-28T09:23:53;95459.19;;;11.67;53.02
33155;BME280;19511;42.682;23.332;2023-04-28T09:26:18;95469.47;;;11.67;52.64
33155;BME280;19511;42.682;23.332;2023-04-28T09:28:44;95483.88;;;11.96;53.03
33155;BME280;19511;42.682;23.332;2023-04-28T09:31:23;95494.06;;;12.06;52.27
33155;BME280;19511;42.682;23.332;2023-04-28T09:33:56;95470.47;;;11.87;54.21
33155;BME280;19511;42.682;23.332;2023-04-28T09:36:28;95475.00;;;12.12;52.99
33155;BME280;19511;42.682;23.332;2023-04-28T09:38:59;95448.06;;;12.13;54.15
33155;BME280;19511;42.682;23.332;2023-04-28T09:44:18;95450.22;;;12.32;50.62
33155;BME280;19511;42.682;23.332;2023-04-28T09:46:46;95447.69;;;12.45;51.14
33155;BME280;19511;42.682;23.332;2023-04-28T09:49:12;95445.78;;;12.69;49.34
33155;BME280;19511;42.682;23.332;2023-04-28T09:51:38;95390.22;;;12.46;49.89
33155;BME280;19511;42.682;23.332;2023-04-28T09:54:04;95455.06;;;12.55;48.63
33155;BME280;19511;42.682;23.332;2023-04-28T09:56:32;95457.84;;;12.55;49.30
33155;BME280;19511;42.682;23.332;2023-04-28T09:58:59;95416.94;;;12.32;49.28
33155;BME280;19511;42.682;23.332;2023-04-28T10:01:37;95450.09;;;12.43;49.47
33155;BME280;19511;42.682;23.332;2023-04-28T10:04:04;95439.19;;;12.60;49.73
33155;BME280;19511;42.682;23.332;2023-04-28T10:06:33;95432.28;;;12.71;48.01
33155;BME280;19511;42.682;23.332;2023-04-28T10:09:00;95419.81;;;12.56;48.75
33155;BME280;19511;42.682;23.332;2023-04-28T10:11:26;95407.97;;;12.79;50.87
33155;BME280;19511;42.682;23.332;2023-04-28T10:13:53;95395.69;;;12.80;47.05
33155;BME280;19511;42.682;23.332;2023-04-28T10:16:19;95430.50;;;13.12;46.77
33155;BME280;19511;42.682;23.332;2023-04-28T10:18:44;95427.44;;;13.06;46.89
33155;BME280;19511;42.682;23.332;2023-04-28T10:21:11;95351.63;;;12.55;47.75
33155;BME280;19511;42.682;23.332;2023-04-28T10:23:57;95434.91;;;13.10;48.11
33155;BME280;19511;42.682;23.332;2023-04-28T10:26:27;95428.03;;;13.18;46.85
33155;BME280;19511;42.682;23.332;2023-04-28T10:29:00;95427.38;;;13.37;47.10
33155;BME280;19511;42.682;23.332;2023-04-28T10:31:26;95431.09;;;13.51;46.67
33155;BME280;19511;42.682;23.332;2023-04-28T10:33:51;95403.78;;;13.22;46.95
33155;BME280;19511;42.682;23.332;2023-04-28T10:36:48;95420.78;;;13.51;46.43
33155;BME280;19511;42.682;23.332;2023-04-28T10:39:15;95422.25;;;13.32;45.65
33155;BME280;19511;42.682;23.332;2023-04-28T10:41:41;95397.09;;;13.43;45.23
33155;BME280;19511;42.682;23.332;2023-04-28T10:47:06;95412.06;;;13.73;45.54
33155;BME280;19511;42.682;23.332;2023-04-28T10:55:30;95321.72;;;13.41;46.50
33155;BME280;19511;42.682;23.332;2023-04-28T11:00:46;95385.00;;;13.97;45.13
33155;BME280;19511;42.682;23.332;2023-04-28T11:03:48;95378.50;;;14.04;44.19
33155;BME280;19511;42.682;23.332;2023-04-28T11:06:40;95355.56;;;14.00;43.73
33155;BME280;19511;42.682;23.332;2023-04-28T11:19:44;95366.63;;;14.03;42.63
33155;BME280;19511;42.682;23.332;2023-04-28T11:22:15;95355.81;;;14.26;43.55
33155;BME280;19511;42.682;23.332;2023-04-28T11:24:54;95346.16;;;13.94;41.92
33155;BME280;19511;42.682;23.332;2023-04-28T11:27:25;95354.91;;;14.12;43.22
33155;BME280;19511;42.682;23.332;2023-04-28T11:29:51;95348.47;;;14.35;44.21
33155;BME280;19511;42.682;23.332;2023-04-28T11:32:33;95348.00;;;14.57;43.68
33155;BME280;19511;42.682;23.332;2023-04-28T11:34:59;95351.81;;;14.83;43.98
33155;BME280;19511;42.682;23.332;2023-04-28T11:37:25;95332.41;;;14.80;42.99
33155;BME280;19511;42.682;23.332;2023-04-28T11:39:51;95243.13;;;14.01;40.03
33155;BME280;19511;42.682;23.332;2023-04-28T11:42:17;95352.16;;;14.69;40.26
33155;BME280;19511;42.682;23.332;2023-04-28T11:44:50;95326.75;;;14.67;42.64
33155;BME280;19511;42.682;23.332;2023-04-28T11:47:27;95287.47;;;14.61;42.73
33155;BME280;19511;42.682;23.332;2023-04-28T11:49:53;95234.91;;;14.47;41.51
33155;BME280;19511;42.682;23.332;2023-04-28T11:52:18;95333.03;;;14.88;42.00
33155;BME280;19511;42.682;23.332;2023-04-28T11:54:52;95324.41;;;14.82;42.36
33155;BME280;19511;42.682;23.332;2023-04-28T11:57:20;95334.00;;;14.97;42.88
33155;BME280;19511;42.682;23.332;2023-04-28T11:59:46;95325.34;;;14.92;41.94
33155;BME280;19511;42.682;23.332;2023-04-28T12:02:11;95300.25;;;14.59;45.22
33155;BME280;19511;42.682;23.332;2023-04-28T12:04:39;95319.69;;;14.79;42.97
33155;BME280;19511;42.682;23.332;2023-04-28T12:07:13;95328.75;;;14.83;41.33
33155;BME280;19511;42.682;23.332;2023-04-28T12:09:39;95317.81;;;14.92;41.80
33155;BME280;19511;42.682;23.332;2023-04-28T12:12:13;95312.25;;;14.92;43.48
33155;BME280;19511;42.682;23.332;2023-04-28T12:14:57;95214.56;;;14.50;43.37
33155;BME280;19511;42.682;23.332;2023-04-28T12:17:24;95300.09;;;15.32;42.82
33155;BME280;19511;42.682;23.332;2023-04-28T12:19:52;95238.94;;;14.95;43.26
33155;BME280;19511;42.682;23.332;2023-04-28T12:22:18;95274.06;;;15.22;43.49
33155;BME280;19511;42.682;23.332;2023-04-28T12:24:43;95187.38;;;14.41;43.84
33155;BME280;19511;42.682;23.332;2023-04-28T12:27:17;95271.84;;;15.00;45.41
33155;BME280;19511;42.682;23.332;2023-04-28T12:29:49;95298.38;;;15.05;43.53
33155;BME280;19511;42.682;23.332;2023-04-28T12:32:16;95267.16;;;14.97;42.43
33155;BME280;19511;42.682;23.332;2023-04-28T12:34:45;95290.13;;;15.01;42.29
33155;BME280;19511;42.682;23.332;2023-04-28T12:37:11;95284.72;;;14.94;42.22
33155;BME280;19511;42.682;23.332;2023-04-28T12:39:41;95268.38;;;14.80;42.20
33155;BME280;19511;42.682;23.332;2023-04-28T12:42:14;95267.31;;;15.07;42.63
33155;BME280;19511;42.682;23.332;2023-04-28T12:44:39;95265.84;;;15.48;43.42
33155;BME280;19511;42.682;23.332;2023-04-28T12:47:08;95193.63;;;15.24;41.53
33155;BME280;19511;42.682;23.332;2023-04-28T12:49:35;95269.22;;;15.85;41.45
33155;BME280;19511;42.682;23.332;2023-04-28T12:52:08;95258.06;;;15.85;41.62
33155;BME280;19511;42.682;23.332;2023-04-28T12:54:33;95263.91;;;16.04;41.64
33155;BME280;19511;42.682;23.332;2023-04-28T12:56:59;95246.75;;;16.18;41.91
33155;BME280;19511;42.682;23.332;2023-04-28T12:59:24;95247.41;;;16.35;42.53
33155;BME280;19511;42.682;23.332;2023-04-28T13:01:55;95243.50;;;16.32;43.42
33155;BME280;19511;42.682;23.332;2023-04-28T13:04:21;95246.28;;;16.32;40.93
33155;BME280;19511;42.682;23.332;2023-04-28T13:06:47;95248.75;;;16.56;41.84
33155;BME280;19511;42.682;23.332;2023-04-28T13:09:14;95248.19;;;16.74;41.31
33155;BME280;19511;42.682;23.332;2023-04-28T13:11:40;95250.22;;;16.74;40.60
33155;BME280;19511;42.682;23.332;2023-04-28T13:14:06;95253.66;;;16.78;40.05
33155;BME280;19511;42.682;23.332;2023-04-28T13:16:35;95247.88;;;16.72;40.48
33155;BME280;19511;42.682;23.332;2023-04-28T13:19:08;95145.94;;;16.03;40.04
33155;BME280;19511;42.682;23.332;2023-04-28T13:21:38;95241.47;;;16.72;39.90